createdAt,value
2023-02-26T00:03:47.218Z,98638.06
2023-02-26T00:09:49.856Z,98588.56
2023-02-26T00:15:58.642Z,98667.75
2023-02-26T00:22:03.782Z,98682.56
2023-02-26T00:28:08.165Z,98670.22
2023-02-26T00:34:16.714Z,98620.69
2023-02-26T00:40:31.212Z,98667.94
2023-02-26T00:47:04.788Z,98568.13
2023-02-26T00:53:29.377Z,98684.41
2023-02-26T00:59:31.845Z,98644.94
2023-02-26T01:05:34.265Z,98672.59
2023-02-26T01:11:37.737Z,98675.25
2023-02-26T01:17:51.211Z,98686.09
2023-02-26T01:23:53.695Z,98519.78
2023-02-26T01:29:56.131Z,98682.50
2023-02-26T01:36:30.230Z,98629.13
2023-02-26T01:42:40.201Z,98688.19
2023-02-26T01:48:54.718Z,98635.66
2023-02-26T01:54:57.185Z,98662.53
2023-02-26T02:01:00.622Z,98687.28
2023-02-26T02:07:03.117Z,98554.94
2023-02-26T02:13:28.236Z,98709.09
2023-02-26T02:19:49.153Z,98722.19
2023-02-26T02:26:31.813Z,98717.16
2023-02-26T02:32:47.410Z,98763.88
2023-02-26T02:38:58.798Z,98748.97
2023-02-26T02:45:09.537Z,98753.66
2023-02-26T02:51:18.794Z,98778.13
2023-02-26T02:57:22.248Z,98790.84
2023-02-26T03:03:27.698Z,98778.78
2023-02-26T03:09:30.153Z,98821.47
2023-02-26T03:15:36.649Z,98814.25
2023-02-26T03:21:57.247Z,98646.88
2023-02-26T03:28:02.643Z,98836.31
2023-02-26T03:35:09.328Z,98846.06
2023-02-26T03:41:27.869Z,98853.38
2023-02-26T03:47:31.315Z,98851.75
2023-02-26T03:53:43.865Z,98838.97
2023-02-26T03:59:46.289Z,98877.41
2023-02-26T04:05:54.810Z,98767.53
2023-02-26T04:12:08.287Z,98787.38
2023-02-26T04:18:12.765Z,98796.22
2023-02-26T04:24:15.311Z,98879.41
2023-02-26T04:30:21.723Z,98839.28
2023-02-26T04:36:34.417Z,98829.16
2023-02-26T04:42:36.816Z,98898.00
2023-02-26T04:48:42.877Z,98878.31
2023-02-26T04:54:48.431Z,98909.69
2023-02-26T05:00:55.224Z,98926.19
2023-02-26T05:06:57.670Z,98928.22
2023-02-26T05:13:00.138Z,98887.97
2023-02-26T05:19:02.963Z,98911.84
2023-02-26T05:25:07.076Z,98950.25
2023-02-26T05:31:10.616Z,98976.84
2023-02-26T05:37:12.997Z,98955.78
2023-02-26T05:43:15.435Z,98967.78
2023-02-26T05:49:17.318Z,98877.81
2023-02-26T05:55:21.346Z,98970.06
2023-02-26T06:01:23.794Z,98992.13
2023-02-26T06:07:26.263Z,99029.34
2023-02-26T06:13:28.765Z,99027.44
2023-02-26T06:19:31.195Z,99018.50
2023-02-26T06:25:33.636Z,98916.44
2023-02-26T06:31:36.129Z,98993.41
2023-02-26T06:37:38.585Z,99016.19
2023-02-26T06:43:40.554Z,99065.34
2023-02-26T06:49:42.484Z,98970.78
2023-02-26T06:55:47.960Z,98960.28
2023-02-26T07:01:50.455Z,99028.75
2023-02-26T07:07:52.893Z,99077.69
2023-02-26T07:13:55.269Z,99077.16
2023-02-26T07:19:57.854Z,99106.13
2023-02-26T07:26:01.291Z,99121.50
2023-02-26T07:32:05.796Z,99068.16
2023-02-26T07:38:08.212Z,99065.66
2023-02-26T07:44:10.434Z,99114.16
2023-02-26T07:50:13.181Z,99113.41
2023-02-26T07:56:15.678Z,99105.41
2023-02-26T08:02:18.728Z,99091.81
2023-02-26T08:08:20.783Z,99103.97
2023-02-26T08:14:25.022Z,99079.88
2023-02-26T08:20:27.468Z,99070.19
2023-02-26T08:26:29.955Z,99117.63
2023-02-26T08:32:32.427Z,99103.50
2023-02-26T08:38:34.679Z,99135.50
2023-02-26T08:44:36.793Z,99145.19
2023-02-26T08:50:38.863Z,99162.78
2023-02-26T08:56:40.674Z,99131.50
2023-02-26T09:02:42.794Z,99153.06
2023-02-26T09:08:44.929Z,99175.38
2023-02-26T09:14:47.588Z,99188.00
2023-02-26T09:20:49.776Z,99195.88
2023-02-26T09:26:51.674Z,98980.16
2023-02-26T09:32:54.630Z,99197.72
2023-02-26T09:38:56.363Z,99147.06
2023-02-26T09:45:00.880Z,99183.00
2023-02-26T09:51:03.338Z,99125.22
2023-02-26T09:57:06.144Z,99136.16
2023-02-26T10:03:23.202Z,99232.66
2023-02-26T10:09:40.475Z,99224.91
2023-02-26T10:15:44.478Z,99193.41
2023-02-26T10:21:52.173Z,99241.31
2023-02-26T10:28:29.626Z,99242.47
2023-02-26T10:34:37.883Z,99268.63
2023-02-26T10:40:56.408Z,99263.25
2023-02-26T10:47:28.996Z,99279.66
2023-02-26T10:53:32.462Z,99285.69
2023-02-26T10:59:34.894Z,99284.56
2023-02-26T11:05:37.385Z,99285.31
2023-02-26T11:11:53.873Z,99288.22
2023-02-26T11:17:59.370Z,99199.38
2023-02-26T11:24:26.924Z,99297.31
2023-02-26T11:30:33.425Z,99263.16
2023-02-26T11:36:39.741Z,99311.81
2023-02-26T11:42:57.521Z,99320.72
2023-02-26T11:49:02.047Z,99284.78
2023-02-26T11:55:28.857Z,99325.91
2023-02-26T12:01:30.603Z,99292.28
2023-02-26T12:07:32.606Z,99280.69
2023-02-26T12:13:53.896Z,99334.75
2023-02-26T12:20:17.707Z,99341.88
2023-02-26T12:26:40.969Z,99356.97
2023-02-26T12:33:08.580Z,99360.72
2023-02-26T12:39:35.182Z,99373.38
2023-02-26T12:45:45.606Z,99315.19
2023-02-26T12:52:26.266Z,99379.56
2023-02-26T12:58:46.547Z,99390.47
2023-02-26T13:05:09.563Z,99388.03
2023-02-26T13:11:33.110Z,99406.19
2023-02-26T13:18:03.979Z,99395.06
2023-02-26T13:24:20.981Z,99425.44
2023-02-26T13:30:33.642Z,99394.19
2023-02-26T13:36:35.645Z,99382.44
2023-02-26T13:42:52.320Z,99452.13
2023-02-26T13:49:17.144Z,99429.81
2023-02-26T13:55:45.626Z,99468.97
2023-02-26T14:01:48.176Z,99477.53
2023-02-26T14:08:14.455Z,99494.88
2023-02-26T14:14:42.820Z,99476.66
2023-02-26T14:20:46.647Z,99443.09
2023-02-26T14:27:04.168Z,99480.03
2023-02-26T14:33:16.000Z,99509.06
2023-02-26T14:39:37.538Z,99516.81
2023-02-26T14:45:42.545Z,99507.84
2023-02-26T14:52:10.740Z,99371.13
2023-02-26T14:58:30.753Z,99548.09
2023-02-26T15:04:47.614Z,99550.91
2023-02-26T15:11:14.032Z,99558.25
2023-02-26T15:17:41.538Z,99559.09
2023-02-26T15:23:51.431Z,99583.50
2023-02-26T15:29:53.221Z,99452.13
2023-02-26T15:35:57.680Z,99589.47
2023-02-26T15:42:05.323Z,99601.34
2023-02-26T15:48:20.777Z,99598.06
2023-02-26T15:54:25.518Z,99632.69
2023-02-26T16:00:27.394Z,99575.72
2023-02-26T16:06:36.976Z,99665.72
2023-02-26T16:12:43.776Z,99666.81
2023-02-26T16:18:46.938Z,99656.19
2023-02-26T16:25:03.589Z,99570.38
2023-02-26T16:31:10.675Z,99579.63
2023-02-26T16:37:34.366Z,99724.91
2023-02-26T16:43:46.103Z,99668.25
2023-02-26T16:49:49.579Z,99740.81
2023-02-26T16:55:57.884Z,99748.31
2023-02-26T17:02:06.530Z,99718.03
2023-02-26T17:08:19.035Z,99767.59
2023-02-26T17:14:26.560Z,99768.06
2023-02-26T17:20:31.047Z,99768.22
2023-02-26T17:26:33.307Z,99752.31
2023-02-26T17:32:36.324Z,99741.91
2023-02-26T17:38:40.423Z,99609.25
2023-02-26T17:44:47.982Z,99785.28
2023-02-26T17:51:07.464Z,99787.84
2023-02-26T17:57:17.926Z,99603.78
2023-02-26T18:03:34.156Z,99467.44
2023-02-26T18:09:45.727Z,99741.16
2023-02-26T18:15:55.471Z,99489.47
2023-02-26T18:22:00.301Z,99793.03
2023-02-26T18:28:12.165Z,99650.03
2023-02-26T18:34:27.574Z,99807.09
2023-02-26T18:40:32.572Z,99697.03
2023-02-26T18:46:35.832Z,99795.72
2023-02-26T18:52:47.782Z,99487.16
2023-02-26T18:58:50.795Z,99696.09
2023-02-26T19:04:54.284Z,99612.50
2023-02-26T19:10:57.745Z,99835.50
2023-02-26T19:17:00.214Z,99827.00
2023-02-26T19:23:06.703Z,99784.78
2023-02-26T19:29:16.223Z,99842.75
2023-02-26T19:35:21.708Z,99823.59
2023-02-26T19:41:23.524Z,99813.28
2023-02-26T19:47:25.659Z,99790.16
2023-02-26T19:53:27.524Z,99829.06
2023-02-26T19:59:29.618Z,99843.47
2023-02-26T20:05:31.389Z,99829.16
2023-02-26T20:11:34.494Z,99876.50
2023-02-26T20:17:36.366Z,99849.41
2023-02-26T20:23:39.830Z,99883.50
2023-02-26T20:29:41.535Z,99855.59
2023-02-26T20:35:46.364Z,99879.88
2023-02-26T20:41:48.232Z,99882.06
2023-02-26T20:47:49.942Z,99857.78
2023-02-26T20:53:52.328Z,99893.81
2023-02-26T20:59:54.361Z,99883.44
2023-02-26T21:05:56.309Z,99893.31
2023-02-26T21:11:58.085Z,99889.00
2023-02-26T21:17:59.980Z,99908.22
2023-02-26T21:24:01.857Z,99888.91
2023-02-26T21:30:10.361Z,99910.13
2023-02-26T21:36:14.179Z,99828.22
2023-02-26T21:42:16.008Z,99824.91
2023-02-26T21:48:18.155Z,99896.28
2023-02-26T21:54:20.274Z,99937.78
2023-02-26T22:00:22.692Z,99937.50
2023-02-26T22:06:25.061Z,99941.34
2023-02-26T22:12:26.878Z,99902.41
2023-02-26T22:18:28.628Z,99972.81
2023-02-26T22:24:30.412Z,99870.25
2023-02-26T22:30:32.666Z,99955.75
2023-02-26T22:36:36.349Z,99860.09
2023-02-26T22:42:38.558Z,99956.94
2023-02-26T22:48:40.692Z,99908.66
2023-02-26T22:54:42.726Z,99905.81
2023-02-26T23:00:44.534Z,99871.50
2023-02-26T23:06:46.207Z,99942.19
2023-02-26T23:12:48.308Z,99964.44
2023-02-26T23:18:50.103Z,99969.50
2023-02-26T23:24:52.098Z,99887.47
2023-02-26T23:30:54.243Z,99956.13
2023-02-26T23:36:56.253Z,100001.78
2023-02-26T23:42:58.146Z,100002.94
2023-02-26T23:49:00.060Z,99974.91
2023-02-26T23:55:02.727Z,99980.13
